Time;durP1;ratioP1;P1;durP2;ratioP2;P2;SDS_P1;SDS_P2;PMS_P1;PMS_P2;Temp;Humidity;BMP_temperature;BMP_pressure;BME280_temperature;BME280_humidity;BME280_pressure;Samples;Min_cycle;Max_cycle;Signal;HPM_P1;HPM_P2
2023/05/24 00:02:18;;;;;;;28.08;7.57;;;9.80;80.50;;;;;;5046999;28;20024;-46
2023/05/24 00:04:44;;;;;;;21.88;6.28;;;9.80;80.50;;;;;;5036846;28;20041;-47
2023/05/24 00:07:12;;;;;;;29.63;6.25;;;9.90;80.60;;;;;;5036792;28;20047;-43
2023/05/24 00:09:39;;;;;;;21.27;6.40;;;9.90;80.70;;;;;;5053971;28;20053;-45
2023/05/24 00:12:06;;;;;;;22.77;6.28;;;9.90;80.80;;;;;;5053536;28;20025;-44
2023/05/24 00:14:33;;;;;;;27.88;6.00;;;9.80;80.80;;;;;;5045860;28;20064;-44
2023/05/24 00:16:59;;;;;;;23.98;7.57;;;9.90;80.50;;;;;;5042042;28;20025;-44
2023/05/24 00:19:26;;;;;;;24.75;5.65;;;9.90;80.50;;;;;;5053283;28;20105;-44
2023/05/24 00:21:54;;;;;;;24.83;6.75;;;9.80;80.70;;;;;;5035729;28;20049;-45
2023/05/24 00:24:21;;;;;;;23.48;6.55;;;9.90;81.20;;;;;;5046017;28;20377;-44
2023/05/24 00:26:49;;;;;;;25.98;7.05;;;9.90;81.60;;;;;;5034281;28;20072;-45
2023/05/24 00:29:21;;;;;;;23.98;6.93;;;9.90;81.90;;;;;;5050408;28;20029;-45
2023/05/24 00:31:47;;;;;;;31.02;6.00;;;9.90;81.90;;;;;;5035372;28;20143;-45
2023/05/24 00:34:13;;;;;;;21.05;5.43;;;9.90;81.60;;;;;;5052753;28;20116;-45
2023/05/24 00:36:40;;;;;;;28.63;7.03;;;9.90;81.20;;;;;;5053895;28;20075;-46
2023/05/24 00:39:07;;;;;;;30.95;6.82;;;9.90;80.30;;;;;;5052890;28;20090;-44
2023/05/24 00:41:34;;;;;;;18.45;5.28;;;9.90;80.20;;;;;;5046574;28;20083;-48
2023/05/24 00:44:03;;;;;;;23.92;7.03;;;9.90;80.30;;;;;;5033972;28;20116;-47
2023/05/24 00:46:34;;;;;;;23.35;7.20;;;9.90;80.40;;;;;;5035061;28;20038;-44
2023/05/24 00:49:03;;;;;;;27.92;6.00;;;9.90;80.70;;;;;;5050871;28;20055;-44
2023/05/24 00:51:32;;;;;;;23.65;6.60;;;9.90;80.90;;;;;;5033761;28;20041;-46
2023/05/24 00:54:00;;;;;;;24.95;8.70;;;9.90;80.90;;;;;;5034230;28;20376;-45
2023/05/24 00:56:27;;;;;;;21.10;5.47;;;9.90;81.10;;;;;;5034302;28;20049;-43
2023/05/24 00:58:55;;;;;;;25.45;7.68;;;9.90;81.30;;;;;;5053311;28;20047;-44
2023/05/24 01:01:25;;;;;;;26.73;6.45;;;9.90;81.30;;;;;;5041972;28;20033;-44
2023/05/24 01:03:53;;;;;;;24.23;6.53;;;9.90;81.10;;;;;;5049412;28;20094;-44
2023/05/24 01:06:20;;;;;;;23.98;6.80;;;9.90;80.40;;;;;;5053523;28;20025;-46
2023/05/24 01:09:11;;;;;;;25.25;6.60;;;9.90;80.40;;;;;;5039830;28;20506;-47
2023/05/24 01:12:25;;;;;;;19.13;4.88;;;9.90;79.90;;;;;;5032007;28;20042;-44
2023/05/24 01:15:14;;;;;;;17.77;5.20;;;9.90;80.00;;;;;;5032295;28;20029;-44
2023/05/24 01:17:50;;;;;;;23.20;6.32;;;9.90;80.20;;;;;;5050302;28;20025;-44
2023/05/24 01:20:19;;;;;;;20.02;6.50;;;10.00;80.50;;;;;;5053135;28;20024;-45
2023/05/24 01:22:45;;;;;;;28.30;6.82;;;9.90;80.40;;;;;;5053201;28;20064;-44
2023/05/24 01:25:29;;;;;;;19.05;5.20;;;9.90;80.10;;;;;;5052180;28;20040;-44
2023/05/24 01:27:57;;;;;;;23.30;5.93;;;9.90;79.60;;;;;;5045726;28;20034;-43
2023/05/24 01:30:27;;;;;;;23.20;5.15;;;10.00;79.80;;;;;;5028907;28;20035;-45
2023/05/24 01:32:55;;;;;;;;;;;10.00;79.70;;;;;;5052529;28;20497;-44
2023/05/24 01:35:22;;;;;;;22.92;6.38;;;10.00;79.80;;;;;;5052852;28;20259;-44
2023/05/24 01:37:49;;;;;;;19.65;4.97;;;10.00;80.20;;;;;;5040381;28;20041;-44
2023/05/24 01:40:18;;;;;;;31.52;6.28;;;10.00;80.70;;;;;;5032898;28;20037;-44
2023/05/24 01:43:10;;;;;;;20.08;5.68;;;10.00;81.00;;;;;;5035663;28;20083;-45
2023/05/24 01:45:44;;;;;;;23.75;6.18;;;10.00;80.60;;;;;;5053032;28;20053;-45
2023/05/24 01:48:40;;;;;;;26.13;5.82;;;10.00;80.10;;;;;;5052159;28;20025;-47
2023/05/24 01:51:10;;;;;;;17.73;5.05;;;10.00;80.50;;;;;;5035531;28;20109;-44
2023/05/24 01:53:47;;;;;;;22.52;5.97;;;10.00;80.70;;;;;;5046024;28;20143;-44
2023/05/24 01:56:15;;;;;;;19.60;5.78;;;9.90;80.80;;;;;;5041378;28;20482;-44
2023/05/24 01:58:44;;;;;;;16.30;5.18;;;9.90;80.40;;;;;;5032862;28;20025;-44
2023/05/24 02:01:12;;;;;;;18.42;5.63;;;9.90;80.00;;;;;;5033168;28;21985;-43
2023/05/24 02:03:39;;;;;;;25.23;5.30;;;9.90;80.00;;;;;;5045710;28;20077;-45
2023/05/24 02:06:07;;;;;;;16.83;5.25;;;9.90;80.40;;;;;;5047524;28;20399;-44
2023/05/24 02:08:36;;;;;;;19.17;6.03;;;10.00;80.80;;;;;;5032860;28;20386;-45
2023/05/24 02:11:03;;;;;;;25.35;5.65;;;9.90;81.30;;;;;;5032550;28;20028;-48
2023/05/24 02:13:31;;;;;;;22.13;6.28;;;9.90;81.80;;;;;;5043840;28;20370;-46
2023/05/24 02:15:58;;;;;;;19.08;4.97;;;9.90;81.90;;;;;;5055458;28;20025;-44
2023/05/24 02:18:24;;;;;;;19.15;4.78;;;10.00;81.70;;;;;;5037982;28;20044;-44
2023/05/24 02:20:51;;;;;;;26.17;5.80;;;10.00;81.30;;;;;;5052849;28;20029;-44
2023/05/24 02:23:19;;;;;;;21.63;5.68;;;10.00;81.10;;;;;;5018689;28;20042;-44
2023/05/24 02:25:46;;;;;;;16.13;5.53;;;10.00;81.30;;;;;;5019245;28;20437;-44
2023/05/24 02:28:13;;;;;;;20.85;5.47;;;10.00;81.60;;;;;;5035845;28;20069;-45
2023/05/24 02:30:43;;;;;;;21.38;5.50;;;10.10;81.20;;;;;;5048351;28;20345;-46
2023/05/24 02:33:13;;;;;;;20.13;5.53;;;10.10;80.70;;;;;;5040503;28;20100;-43
2023/05/24 02:35:40;;;;;;;21.65;5.63;;;10.10;80.40;;;;;;5042253;28;20034;-44
2023/05/24 02:38:08;;;;;;;23.70;7.72;;;10.10;80.20;;;;;;5036208;28;20021;-43
2023/05/24 02:40:35;;;;;;;23.15;5.72;;;10.10;80.30;;;;;;5026416;28;20402;-45
2023/05/24 02:43:04;;;;;;;25.30;5.63;;;10.10;80.50;;;;;;5038065;28;20037;-45
2023/05/24 02:45:35;;;;;;;20.55;5.68;;;10.10;80.90;;;;;;5056040;28;20092;-44
2023/05/24 02:48:04;;;;;;;24.10;5.35;;;10.10;81.00;;;;;;5037760;28;20032;-46
2023/05/24 02:50:31;;;;;;;23.20;5.40;;;10.10;80.60;;;;;;5045668;28;20030;-43
2023/05/24 02:53:00;;;;;;;20.88;5.53;;;10.10;80.50;;;;;;5035914;28;20072;-45
2023/05/24 02:55:28;;;;;;;25.73;6.90;;;10.10;80.80;;;;;;5036588;28;20032;-44
2023/05/24 02:57:55;;;;;;;19.80;6.15;;;10.20;81.10;;;;;;5037323;28;20088;-45
2023/05/24 03:00:24;;;;;;;26.00;6.07;;;10.20;81.50;;;;;;5055616;28;20091;-44
2023/05/24 03:02:54;;;;;;;24.55;6.10;;;10.20;81.80;;;;;;5041951;28;20108;-47
2023/05/24 03:05:21;;;;;;;27.77;9.45;;;10.20;81.50;;;;;;5054948;28;20060;-45
2023/05/24 03:07:46;;;;;;;20.73;5.20;;;10.20;81.60;;;;;;5055661;28;20103;-44
2023/05/24 03:10:12;;;;;;;25.85;7.93;;;10.20;81.80;;;;;;5054013;28;20111;-44
2023/05/24 03:12:39;;;;;;;23.35;6.82;;;10.20;82.00;;;;;;5035533;28;20418;-45
2023/05/24 03:15:07;;;;;;;26.27;6.03;;;10.10;82.20;;;;;;5042081;28;20025;-44
2023/05/24 03:17:33;;;;;;;20.65;5.93;;;10.10;82.20;;;;;;5055471;28;20100;-43
2023/05/24 03:20:00;;;;;;;21.98;5.47;;;10.10;82.20;;;;;;5051342;28;20028;-45
2023/05/24 03:22:26;;;;;;;20.55;6.25;;;10.10;81.20;;;;;;5041804;28;20148;-47
2023/05/24 03:24:53;;;;;;;23.83;6.95;;;10.10;80.30;;;;;;5035417;28;20108;-48
2023/05/24 03:27:22;;;;;;;26.08;7.13;;;10.20;80.40;;;;;;5035502;28;20029;-49
2023/05/24 03:29:51;;;;;;;23.50;6.50;;;10.20;80.70;;;;;;5017316;28;20486;-45
2023/05/24 03:32:18;;;;;;;23.43;5.67;;;10.20;81.30;;;;;;5044642;28;20071;-45
2023/05/24 03:34:47;;;;;;;27.75;6.38;;;10.20;81.10;;;;;;5051523;28;20082;-44
2023/05/24 03:37:14;;;;;;;25.20;5.75;;;10.10;81.10;;;;;;5044577;28;20104;-46
2023/05/24 03:39:43;;;;;;;22.73;7.43;;;10.20;81.00;;;;;;5035056;28;20027;-45
2023/05/24 03:42:10;;;;;;;30.67;8.23;;;10.20;81.40;;;;;;5023456;28;20033;-45
2023/05/24 03:44:37;;;;;;;28.05;6.72;;;10.20;81.80;;;;;;5050166;28;20076;-45
2023/05/24 03:47:04;;;;;;;28.45;5.80;;;10.20;81.90;;;;;;5017386;28;20045;-46
2023/05/24 03:49:35;;;;;;;23.95;6.07;;;10.20;81.80;;;;;;5050685;28;20033;-45
2023/05/24 03:52:02;;;;;;;20.70;6.13;;;10.20;81.70;;;;;;5054956;28;20029;-43
2023/05/24 03:54:30;;;;;;;25.00;6.78;;;10.20;81.50;;;;;;5055056;28;20033;-44
2023/05/24 03:57:01;;;;;;;21.00;6.10;;;10.20;81.20;;;;;;5036889;28;20107;-45
2023/05/24 03:59:29;;;;;;;27.70;6.47;;;10.30;81.40;;;;;;5035122;28;20025;-45
2023/05/24 04:01:56;;;;;;;29.98;6.57;;;10.30;81.50;;;;;;5052893;28;20033;-45
2023/05/24 04:04:22;;;;;;;27.48;6.35;;;10.30;81.70;;;;;;5054632;28;20434;-44
2023/05/24 04:06:49;;;;;;;20.80;6.28;;;10.30;81.80;;;;;;5053641;28;20048;-44
2023/05/24 04:09:16;;;;;;;25.10;6.35;;;10.30;82.00;;;;;;5054310;28;20047;-43
2023/05/24 04:11:43;;;;;;;22.25;5.00;;;10.30;82.00;;;;;;5035195;28;20045;-45
2023/05/24 04:14:12;;;;;;;26.63;6.18;;;10.30;81.80;;;;;;5046851;28;20029;-44
2023/05/24 04:16:40;;;;;;;23.35;6.50;;;10.30;82.10;;;;;;5054478;28;20484;-46
2023/05/24 04:19:07;;;;;;;25.83;6.88;;;10.30;82.10;;;;;;5051344;28;20036;-45
2023/05/24 04:21:35;;;;;;;29.90;6.65;;;10.30;81.60;;;;;;5054272;28;20040;-45
2023/05/24 04:24:02;;;;;;;22.63;6.50;;;10.30;81.60;;;;;;5050340;28;20033;-45
2023/05/24 04:26:30;;;;;;;24.27;7.70;;;10.30;81.90;;;;;;5052699;28;20033;-47
2023/05/24 04:28:57;;;;;;;23.25;6.15;;;10.30;81.90;;;;;;5033933;28;20044;-46
2023/05/24 04:31:25;;;;;;;25.13;6.65;;;10.30;82.00;;;;;;5033952;28;20100;-46
2023/05/24 04:33:52;;;;;;;24.08;7.35;;;10.40;82.10;;;;;;5048190;28;20040;-45
2023/05/24 04:36:19;;;;;;;23.17;6.75;;;10.40;82.40;;;;;;5051461;28;20025;-44
2023/05/24 04:38:46;;;;;;;26.60;6.88;;;10.40;82.60;;;;;;5051762;28;20467;-46
2023/05/24 04:41:12;;;;;;;23.95;6.63;;;10.40;82.80;;;;;;5052435;28;20021;-46
2023/05/24 04:43:39;;;;;;;23.38;7.53;;;10.40;82.90;;;;;;5049514;28;20033;-46
2023/05/24 04:46:06;;;;;;;30.10;6.40;;;10.50;82.90;;;;;;5047980;28;20045;-45
2023/05/24 04:48:32;;;;;;;30.60;7.07;;;10.50;82.50;;;;;;5042746;28;20394;-44
2023/05/24 04:50:59;;;;;;;32.30;6.45;;;10.50;82.10;;;;;;5051637;28;20507;-45
2023/05/24 04:53:26;;;;;;;24.33;7.38;;;10.60;81.80;;;;;;5033806;28;20100;-45
2023/05/24 04:55:52;;;;;;;22.83;6.78;;;10.50;81.70;;;;;;5033762;28;20033;-44
2023/05/24 04:58:19;;;;;;;26.63;6.70;;;10.50;81.80;;;;;;5020423;28;20021;-44
2023/05/24 05:00:46;;;;;;;27.05;8.30;;;10.60;81.90;;;;;;5025775;28;20429;-45
2023/05/24 05:03:16;;;;;;;20.70;5.88;;;10.60;81.70;;;;;;5052755;28;20040;-44
2023/05/24 05:05:44;;;;;;;25.73;6.05;;;10.60;81.80;;;;;;5053369;28;20057;-44
2023/05/24 05:08:10;;;;;;;29.83;7.50;;;10.60;81.90;;;;;;5052184;28;20039;-44
2023/05/24 05:10:37;;;;;;;26.25;8.38;;;10.60;82.00;;;;;;5042381;28;20142;-47
2023/05/24 05:13:04;;;;;;;22.38;6.25;;;10.50;82.10;;;;;;5053263;28;20025;-44
2023/05/24 05:15:31;;;;;;;32.75;7.40;;;10.50;82.60;;;;;;5036631;28;20499;-45
2023/05/24 05:17:57;;;;;;;25.80;7.22;;;10.50;82.90;;;;;;5034410;28;20022;-44
2023/05/24 05:20:24;;;;;;;28.70;7.30;;;10.50;82.90;;;;;;5052950;28;20155;-44
2023/05/24 05:22:50;;;;;;;27.05;5.88;;;10.50;82.70;;;;;;5034555;28;20053;-44
2023/05/24 05:25:17;;;;;;;26.98;6.78;;;10.50;82.60;;;;;;5033512;28;20521;-45
2023/05/24 05:27:44;;;;;;;32.45;5.95;;;10.40;82.30;;;;;;5037800;28;20040;-44
2023/05/24 05:30:11;;;;;;;24.50;6.28;;;10.40;82.10;;;;;;5048544;28;20462;-45
2023/05/24 05:32:38;;;;;;;25.02;6.82;;;10.50;82.30;;;;;;5053054;28;20504;-45
2023/05/24 05:35:05;;;;;;;35.70;8.43;;;10.50;82.30;;;;;;5052336;28;20108;-45
2023/05/24 05:37:31;;;;;;;25.77;6.43;;;10.50;82.50;;;;;;5035255;28;20029;-44
2023/05/24 05:39:58;;;;;;;29.60;6.05;;;10.50;82.80;;;;;;5047428;28;20079;-44
2023/05/24 05:42:25;;;;;;;33.35;8.88;;;10.50;82.80;;;;;;5052880;28;20508;-45
2023/05/24 05:44:51;;;;;;;28.52;6.40;;;10.50;83.00;;;;;;5044679;28;20091;-45
2023/05/24 05:47:18;;;;;;;20.25;5.72;;;10.50;83.00;;;;;;5046548;28;20029;-44
2023/05/24 05:49:45;;;;;;;19.25;6.13;;;10.50;82.50;;;;;;5050672;28;20434;-45
2023/05/24 05:52:12;;;;;;;20.55;6.07;;;10.50;82.30;;;;;;5051226;28;20043;-44
2023/05/24 05:54:41;;;;;;;28.17;6.95;;;10.60;82.40;;;;;;5044668;28;20033;-44
2023/05/24 05:57:09;;;;;;;22.10;6.50;;;10.60;82.30;;;;;;5015176;28;20030;-43
2023/05/24 05:59:37;;;;;;;28.85;6.40;;;10.60;82.60;;;;;;5032841;28;20039;-44
2023/05/24 06:02:04;;;;;;;27.38;5.88;;;10.70;82.70;;;;;;5034214;28;20033;-44
2023/05/24 06:04:32;;;;;;;21.88;6.13;;;10.70;83.10;;;;;;5035681;28;20026;-45
2023/05/24 06:07:01;;;;;;;31.25;6.40;;;10.70;83.30;;;;;;5051986;28;20064;-45
2023/05/24 06:09:28;;;;;;;24.63;6.57;;;10.70;83.70;;;;;;5052671;28;20111;-45
2023/05/24 06:11:58;;;;;;;18.48;6.18;;;10.70;83.20;;;;;;5035600;28;20333;-44
2023/05/24 06:14:29;;;;;;;24.20;7.03;;;10.70;83.40;;;;;;5032303;28;20034;-44
2023/05/24 06:16:57;;;;;;;32.75;7.32;;;10.70;83.70;;;;;;5044692;28;20032;-45
2023/05/24 06:19:24;;;;;;;35.38;6.88;;;10.90;83.80;;;;;;5043677;28;20029;-44
2023/05/24 06:21:50;;;;;;;29.48;6.95;;;10.80;82.90;;;;;;5033474;28;20049;-46
2023/05/24 06:24:19;;;;;;;21.33;7.20;;;10.90;83.20;;;;;;5051572;28;20158;-46
2023/05/24 06:26:46;;;;;;;25.98;6.53;;;11.00;83.20;;;;;;5049922;28;20367;-44
2023/05/24 06:29:14;;;;;;;32.53;7.95;;;11.00;83.50;;;;;;5033033;28;20351;-46
2023/05/24 06:31:42;;;;;;;24.92;6.45;;;11.00;83.10;;;;;;5050970;28;20028;-45
2023/05/24 06:34:11;;;;;;;24.20;6.03;;;11.00;82.90;;;;;;5036960;28;20025;-46
2023/05/24 06:36:41;;;;;;;17.48;5.68;;;11.00;82.50;;;;;;5032545;28;20443;-45
2023/05/24 06:39:12;;;;;;;18.50;5.32;;;11.00;82.60;;;;;;5033118;28;20041;-45
2023/05/24 06:41:39;;;;;;;19.92;5.95;;;11.00;82.90;;;;;;5033366;28;20061;-44
2023/05/24 06:44:06;;;;;;;22.92;6.30;;;11.00;83.30;;;;;;5049951;28;20114;-45
2023/05/24 06:46:33;;;;;;;24.77;7.20;;;11.00;83.80;;;;;;5051096;28;20040;-46
2023/05/24 06:49:03;;;;;;;26.42;7.68;;;11.00;83.80;;;;;;5050986;28;20025;-45
2023/05/24 06:51:32;;;;;;;24.38;6.47;;;11.00;83.30;;;;;;5052061;28;20118;-47
2023/05/24 06:53:59;;;;;;;24.55;6.43;;;11.00;83.60;;;;;;5052134;28;20074;-43
2023/05/24 06:56:27;;;;;;;28.40;6.80;;;11.00;83.40;;;;;;5030339;28;20561;-45
2023/05/24 06:58:58;;;;;;;22.63;6.45;;;10.90;83.20;;;;;;5044186;28;20036;-44
2023/05/24 07:01:26;;;;;;;17.20;5.30;;;11.00;83.00;;;;;;5045356;28;20025;-45
2023/05/24 07:03:53;;;;;;;20.75;5.95;;;11.00;82.50;;;;;;5035216;28;20030;-45
2023/05/24 07:06:20;;;;;;;30.83;6.40;;;11.00;82.40;;;;;;5035623;28;20026;-45
2023/05/24 07:08:49;;;;;;;20.45;6.05;;;11.00;82.60;;;;;;5034240;28;20029;-45
2023/05/24 07:11:16;;;;;;;23.83;6.07;;;11.10;82.90;;;;;;5035535;28;20113;-45
2023/05/24 07:13:43;;;;;;;20.80;5.50;;;11.20;82.70;;;;;;5035719;28;20031;-45
2023/05/24 07:16:10;;;;;;;31.75;7.20;;;11.20;82.40;;;;;;5017967;28;20018;-45
2023/05/24 07:18:40;;;;;;;21.25;5.95;;;11.10;82.20;;;;;;5035433;28;20112;-47
2023/05/24 07:21:06;;;;;;;30.92;8.10;;;11.10;82.50;;;;;;5035275;28;20080;-45
2023/05/24 07:23:32;;;;;;;22.27;6.40;;;11.10;81.80;;;;;;5036035;28;20080;-48
2023/05/24 07:25:58;;;;;;;19.88;5.43;;;11.20;82.10;;;;;;5035185;28;20037;-44
2023/05/24 07:28:25;;;;;;;27.90;7.68;;;11.40;81.90;;;;;;5017774;28;20534;-45
2023/05/24 07:30:51;;;;;;;20.67;6.50;;;11.50;81.60;;;;;;5035009;28;20037;-48
2023/05/24 07:33:18;;;;;;;31.45;7.03;;;11.70;81.40;;;;;;5035422;28;20022;-46
2023/05/24 07:35:50;;;;;;;23.70;5.95;;;11.70;80.20;;;;;;5037450;28;20087;-46
2023/05/24 07:38:17;;;;;;;20.60;6.47;;;11.70;80.00;;;;;;5034998;28;20044;-45
2023/05/24 07:40:45;;;;;;;20.38;7.03;;;11.70;80.20;;;;;;5034813;28;20025;-46
2023/05/24 07:43:14;;;;;;;26.75;5.63;;;11.70;79.90;;;;;;5034809;28;20425;-46
2023/05/24 07:45:41;;;;;;;27.63;7.45;;;11.60;80.40;;;;;;5017720;28;20033;-45
2023/05/24 07:48:07;;;;;;;21.30;6.85;;;11.60;80.50;;;;;;5034830;28;20379;-46
2023/05/24 07:50:35;;;;;;;26.08;6.18;;;11.60;80.50;;;;;;5034696;28;20075;-45
2023/05/24 07:53:01;;;;;;;26.40;5.93;;;11.60;80.80;;;;;;5034481;28;20017;-45
2023/05/24 07:55:29;;;;;;;22.60;5.72;;;11.80;79.70;;;;;;5017364;28;20029;-44
2023/05/24 07:57:56;;;;;;;16.17;4.78;;;12.10;78.80;;;;;;5033530;28;20026;-45
2023/05/24 08:00:24;;;;;;;24.33;6.45;;;12.20;77.30;;;;;;5034996;28;20044;-45
2023/05/24 08:02:51;;;;;;;17.35;5.10;;;12.20;76.50;;;;;;5034403;28;20056;-45
2023/05/24 08:05:18;;;;;;;27.65;5.95;;;12.30;77.50;;;;;;5016939;28;20033;-45
2023/05/24 08:07:44;;;;;;;19.88;6.68;;;12.20;77.80;;;;;;5035193;28;20430;-44
2023/05/24 08:10:13;;;;;;;25.45;7.00;;;12.30;78.80;;;;;;5034211;28;20029;-45
2023/05/24 08:12:40;;;;;;;25.60;7.15;;;12.40;78.80;;;;;;5033416;28;20431;-46
2023/05/24 08:15:10;;;;;;;25.50;7.03;;;12.70;78.20;;;;;;5034897;28;20394;-45
2023/05/24 08:17:40;;;;;;;;;;;12.90;76.80;;;;;;5035010;28;20017;-46
2023/05/24 08:20:15;;;;;;;21.55;5.80;;;12.90;76.50;;;;;;5034374;28;19940;-45
2023/05/24 08:22:42;;;;;;;24.17;5.85;;;12.90;76.10;;;;;;5034182;28;20045;-45
2023/05/24 08:25:10;;;;;;;18.92;4.78;;;13.00;75.60;;;;;;5034281;28;20033;-44
2023/05/24 08:27:36;;;;;;;24.77;5.53;;;13.00;75.90;;;;;;5033811;28;20091;-45
2023/05/24 08:30:08;;;;;;;20.60;6.20;;;13.00;75.80;;;;;;5034011;28;20062;-45
2023/05/24 08:32:35;;;;;;;29.80;7.32;;;12.90;76.50;;;;;;5033032;28;20447;-45
2023/05/24 08:35:02;;;;;;;29.52;6.88;;;13.00;77.10;;;;;;5032981;28;20021;-45
2023/05/24 08:37:28;;;;;;;31.23;6.97;;;13.10;77.30;;;;;;5033450;28;20034;-46
2023/05/24 08:39:55;;;;;;;23.90;6.70;;;13.20;77.00;;;;;;5053429;28;20020;-44
2023/05/24 08:42:24;;;;;;;17.55;4.88;;;13.00;76.50;;;;;;5053856;28;20028;-45
2023/05/24 08:45:16;;;;;;;23.85;5.88;;;12.90;76.50;;;;;;5053469;28;20071;-46
2023/05/24 08:47:44;;;;;;;30.27;7.25;;;12.90;77.00;;;;;;5038935;28;20562;-50
2023/05/24 08:50:12;;;;;;;29.13;6.38;;;12.70;77.00;;;;;;5033570;28;20029;-50
2023/05/24 08:52:40;;;;;;;23.33;6.07;;;12.60;77.50;;;;;;5033472;28;20041;-50
2023/05/24 08:55:07;;;;;;;17.80;5.53;;;12.60;77.20;;;;;;5034253;28;20037;-46
2023/05/24 08:57:38;;;;;;;17.17;7.28;;;12.70;76.70;;;;;;5033601;28;20087;-49
2023/05/24 09:00:11;;;;;;;16.10;4.70;;;12.80;77.80;;;;;;5033866;28;20025;-47
2023/05/24 09:02:40;;;;;;;22.30;6.10;;;12.90;77.10;;;;;;5033734;28;20029;-51
2023/05/24 09:05:10;;;;;;;26.63;6.80;;;12.90;76.50;;;;;;5033525;28;20026;-48
2023/05/24 09:07:37;;;;;;;25.02;6.78;;;12.80;76.90;;;;;;5032856;28;20276;-48
2023/05/24 09:10:09;;;;;;;20.80;5.82;;;12.70;76.10;;;;;;5033036;28;20032;-49
2023/05/24 09:12:37;;;;;;;23.00;6.35;;;12.70;77.00;;;;;;5033884;28;20079;-49
2023/05/24 09:15:07;;;;;;;18.00;5.45;;;12.70;77.70;;;;;;5032157;28;20052;-47
2023/05/24 09:17:36;;;;;;;15.27;5.30;;;12.60;78.20;;;;;;5033406;28;20045;-50
2023/05/24 09:20:08;;;;;;;19.92;5.75;;;12.50;78.00;;;;;;5033137;28;20454;-47
2023/05/24 09:22:36;;;;;;;19.27;5.90;;;12.40;78.70;;;;;;5033585;28;20054;-45
2023/05/24 09:25:05;;;;;;;25.15;7.03;;;12.40;78.90;;;;;;5033044;28;20017;-47
2023/05/24 09:27:33;;;;;;;23.98;6.68;;;12.40;79.00;;;;;;5033655;28;20348;-47
2023/05/24 09:30:09;;;;;;;18.13;4.82;;;12.50;78.50;;;;;;5033042;28;20536;-44
2023/05/24 09:32:36;;;;;;;24.17;5.78;;;12.50;77.90;;;;;;5032815;28;20459;-45
2023/05/24 09:35:07;;;;;;;16.45;5.50;;;12.60;77.90;;;;;;5033314;28;20128;-45
2023/05/24 09:37:37;;;;;;;24.77;6.00;;;12.60;77.50;;;;;;5033218;28;20315;-45
2023/05/24 09:40:05;;;;;;;16.52;5.15;;;12.70;77.50;;;;;;5033053;28;20056;-45
2023/05/24 09:42:32;;;;;;;24.52;7.15;;;12.70;76.90;;;;;;5032988;28;20120;-45
2023/05/24 09:45:10;;;;;;;20.95;4.88;;;12.80;77.00;;;;;;5033381;28;20026;-45
2023/05/24 09:47:48;;;;;;;21.13;5.53;;;12.90;76.50;;;;;;5015361;28;20466;-45
2023/05/24 09:50:16;;;;;;;17.55;6.03;;;13.00;76.00;;;;;;5032390;28;20029;-45
2023/05/24 09:52:44;;;;;;;20.70;5.82;;;13.00;75.90;;;;;;5032574;28;20486;-45
2023/05/24 09:55:19;;;;;;;22.73;6.38;;;12.90;76.70;;;;;;5033148;28;20061;-45
2023/05/24 09:58:07;;;;;;;20.85;5.18;;;13.10;76.30;;;;;;5033016;28;20121;-46
2023/05/24 10:00:41;;;;;;;25.67;5.85;;;13.30;76.30;;;;;;5031181;28;20040;-48
2023/05/24 10:03:10;;;;;;;20.10;6.43;;;13.60;75.00;;;;;;5032407;28;20021;-49
2023/05/24 10:05:41;;;;;;;20.95;7.57;;;13.60;74.20;;;;;;5032742;28;20029;-47
2023/05/24 10:08:09;;;;;;;22.85;5.97;;;13.40;74.40;;;;;;5015340;28;20053;-44
2023/05/24 10:10:35;;;;;;;18.15;5.18;;;13.30;74.50;;;;;;5032934;28;20057;-46
2023/05/24 10:13:02;;;;;;;20.95;5.35;;;13.20;74.90;;;;;;5032567;28;20071;-45
2023/05/24 10:15:29;;;;;;;13.73;4.70;;;13.20;74.70;;;;;;5033381;28;20025;-46
2023/05/24 10:17:57;;;;;;;14.15;4.80;;;13.10;74.30;;;;;;5032872;28;20033;-45
2023/05/24 10:20:24;;;;;;;22.15;5.20;;;13.20;75.10;;;;;;5032601;28;20049;-47
2023/05/24 10:22:52;;;;;;;19.40;6.55;;;13.20;74.90;;;;;;5032848;28;20053;-45
2023/05/24 10:25:24;;;;;;;16.45;4.80;;;13.30;75.40;;;;;;5032788;28;20026;-45
2023/05/24 10:28:06;;;;;;;20.15;4.82;;;13.40;74.60;;;;;;5033140;28;20037;-48
2023/05/24 10:30:43;;;;;;;19.33;6.20;;;13.40;74.60;;;;;;5032401;28;20025;-46
2023/05/24 10:33:12;;;;;;;18.17;4.47;;;13.40;74.30;;;;;;5032462;28;20025;-45
2023/05/24 10:35:43;;;;;;;21.70;5.68;;;13.60;74.40;;;;;;5033381;28;20021;-46
2023/05/24 10:38:10;;;;;;;17.30;4.60;;;13.50;74.10;;;;;;5036962;28;20395;-49
2023/05/24 10:40:41;;;;;;;16.25;4.65;;;13.40;74.00;;;;;;5036320;28;20378;-46
2023/05/24 10:43:09;;;;;;;14.25;4.70;;;13.50;74.30;;;;;;5036382;28;20790;-46
2023/05/24 10:45:41;;;;;;;18.75;4.82;;;13.40;74.40;;;;;;5037257;28;20034;-46
2023/05/24 10:48:16;;;;;;;20.92;5.00;;;13.40;74.80;;;;;;5036166;28;20048;-45
2023/05/24 10:50:43;;;;;;;18.17;6.28;;;13.40;75.30;;;;;;5035519;28;20087;-50
2023/05/24 10:53:27;;;;;;;21.00;6.75;;;13.40;75.90;;;;;;5018470;28;20036;-47
2023/05/24 10:56:14;;;;;;;17.90;5.28;;;13.30;75.70;;;;;;5035524;28;20022;-46
2023/05/24 10:59:01;;;;;;;18.10;4.57;;;13.40;74.30;;;;;;5035774;28;20025;-45
2023/05/24 11:01:53;;;;;;;16.63;5.50;;;13.30;74.70;;;;;;5035752;28;20096;-47
2023/05/24 11:04:20;;;;;;;14.73;4.32;;;13.40;75.10;;;;;;5036325;28;20037;-46
2023/05/24 11:06:52;;;;;;;17.45;4.72;;;13.50;75.30;;;;;;5035954;28;20436;-46
2023/05/24 11:09:20;;;;;;;18.08;5.35;;;13.50;74.90;;;;;;5035875;28;20335;-47
2023/05/24 11:11:55;;;;;;;16.50;4.38;;;13.50;74.90;;;;;;5034142;28;20164;-46
2023/05/24 11:14:27;;;;;;;14.38;5.07;;;13.60;75.00;;;;;;5018080;28;20022;-49
2023/05/24 11:16:59;;;;;;;11.40;4.57;;;13.60;74.00;;;;;;5035763;28;20053;-45
2023/05/24 11:19:51;;;;;;;15.70;4.80;;;13.60;75.10;;;;;;5035695;28;20439;-49
2023/05/24 11:22:20;;;;;;;10.98;4.32;;;13.70;74.00;;;;;;5033761;28;20049;-46
2023/05/24 11:24:47;;;;;;;15.10;4.27;;;13.70;74.30;;;;;;5035402;28;20096;-45
2023/05/24 11:27:13;;;;;;;13.90;5.32;;;13.80;73.50;;;;;;5034544;28;20268;-47
2023/05/24 11:29:45;;;;;;;9.02;3.55;;;13.80;74.10;;;;;;5034218;28;20021;-46
2023/05/24 11:32:16;;;;;;;13.90;5.50;;;13.80;73.50;;;;;;5054551;28;20024;-46
2023/05/24 11:34:48;;;;;;;15.85;4.78;;;13.80;74.20;;;;;;5054880;28;20025;-46
2023/05/24 11:37:15;;;;;;;17.10;4.63;;;13.60;74.80;;;;;;5038293;28;20026;-46
2023/05/24 11:39:42;;;;;;;16.85;4.57;;;13.60;75.30;;;;;;5034643;28;20022;-50
2023/05/24 11:42:09;;;;;;;11.30;4.50;;;13.50;74.80;;;;;;5034901;28;20036;-47
2023/05/24 11:44:39;;;;;;;13.73;4.40;;;13.60;74.90;;;;;;5017286;28;20402;-47
2023/05/24 11:47:06;;;;;;;;;;;13.50;75.30;;;;;;5033661;28;20029;-48
2023/05/24 11:49:33;;;;;;;16.00;5.53;;;13.40;75.50;;;;;;5034823;28;19905;-46
2023/05/24 11:52:03;;;;;;;12.85;4.72;;;13.20;75.50;;;;;;5032894;28;20033;-48
2023/05/24 11:54:32;;;;;;;16.98;6.05;;;13.10;76.60;;;;;;5034486;28;20439;-47
2023/05/24 11:57:04;;;;;;;14.75;5.03;;;13.20;76.70;;;;;;5034157;28;20477;-48
2023/05/24 11:59:31;;;;;;;13.05;3.78;;;13.10;75.70;;;;;;5035093;28;20033;-46
2023/05/24 12:02:03;;;;;;;17.55;4.88;;;13.10;76.20;;;;;;5034295;28;20026;-50
2023/05/24 12:04:34;;;;;;;12.40;5.20;;;13.00;77.10;;;;;;5034654;28;20034;-48
2023/05/24 12:07:00;;;;;;;16.23;4.82;;;13.10;76.00;;;;;;5016758;28;20048;-46
2023/05/24 12:09:28;;;;;;;12.18;4.20;;;13.30;76.50;;;;;;5034806;28;20053;-48
2023/05/24 12:11:57;;;;;;;17.80;5.68;;;13.30;75.80;;;;;;5034031;28;20032;-48
2023/05/24 12:14:27;;;;;;;17.85;5.28;;;13.40;75.40;;;;;;5034292;28;20086;-52
2023/05/24 12:16:55;;;;;;;21.45;6.53;;;13.40;74.90;;;;;;5034055;28;20022;-46
2023/05/24 12:19:29;;;;;;;13.27;5.10;;;13.50;75.50;;;;;;5034623;28;20030;-46
2023/05/24 12:21:57;;;;;;;20.98;5.28;;;13.60;74.40;;;;;;5033366;28;20053;-46
2023/05/24 12:24:27;;;;;;;12.10;4.82;;;13.80;74.30;;;;;;5034524;28;20077;-46
2023/05/24 12:27:05;;;;;;;23.27;7.22;;;14.00;74.60;;;;;;5034587;28;20333;-51
2023/05/24 12:29:38;;;;;;;12.07;4.15;;;14.10;72.90;;;;;;5033801;28;20374;-46
2023/05/24 12:32:10;;;;;;;14.70;4.95;;;13.80;72.70;;;;;;5017278;28;20036;-47
2023/05/24 12:34:42;;;;;;;12.57;4.63;;;13.90;74.50;;;;;;5034217;28;20025;-48
2023/05/24 12:37:17;;;;;;;15.88;4.95;;;14.00;74.40;;;;;;5034281;28;20025;-47
2023/05/24 12:39:44;;;;;;;15.75;4.35;;;14.00;73.70;;;;;;5033731;28;20048;-46
2023/05/24 12:42:14;;;;;;;12.23;4.22;;;13.90;73.80;;;;;;5032233;28;20084;-49
2023/05/24 12:44:40;;;;;;;16.75;5.32;;;13.70;74.60;;;;;;5032189;28;20370;-49
2023/05/24 12:47:08;;;;;;;17.67;6.03;;;13.60;75.50;;;;;;5016715;28;20029;-46
2023/05/24 12:49:34;;;;;;;16.38;4.78;;;13.60;76.00;;;;;;5034017;28;20390;-46